sensor_id;sensor_type;location;lat;lon;timestamp;pressure;altitude;pressure_sealevel;temperature;humidity
47082;BME280;33066;49.296;14.470;2022-10-24T00:01:23;96943.08;;;17.53;41.86
47082;BME280;33066;49.296;14.470;2022-10-24T00:03:49;96950.22;;;17.36;42.12
47082;BME280;33066;49.296;14.470;2022-10-24T00:06:14;96954.16;;;17.29;42.23
47082;BME280;33066;49.296;14.470;2022-10-24T00:08:40;96961.20;;;17.51;42.25
47082;BME280;33066;49.296;14.470;2022-10-24T00:11:08;96958.62;;;17.25;42.27
47082;BME280;33066;49.296;14.470;2022-10-24T00:13:29;96954.16;;;17.26;42.33
47082;BME280;33066;49.296;14.470;2022-10-24T00:15:55;96953.77;;;17.31;42.32
47082;BME280;33066;49.296;14.470;2022-10-24T00:18:21;96960.05;;;17.36;42.25
47082;BME280;33066;49.296;14.470;2022-10-24T00:20:46;96970.61;;;17.32;42.24
47082;BME280;33066;49.296;14.470;2022-10-24T00:23:12;96972.67;;;17.31;42.27
47082;BME280;33066;49.296;14.470;2022-10-24T00:25:37;96968.64;;;17.28;42.26
47082;BME280;33066;49.296;14.470;2022-10-24T00:28:02;96970.22;;;17.28;42.33
47082;BME280;33066;49.296;14.470;2022-10-24T00:30:28;96964.64;;;17.28;42.26
47082;BME280;33066;49.296;14.470;2022-10-24T00:32:53;96968.40;;;17.28;42.32
47082;BME280;33066;49.296;14.470;2022-10-24T00:35:19;96976.07;;;17.24;42.34
47082;BME280;33066;49.296;14.470;2022-10-24T00:37:45;96987.45;;;17.20;42.42
47082;BME280;33066;49.296;14.470;2022-10-24T00:40:15;96998.31;;;17.19;42.45
47082;BME280;33066;49.296;14.470;2022-10-24T00:42:36;96997.63;;;17.17;42.43
47082;BME280;33066;49.296;14.470;2022-10-24T00:47:27;97011.24;;;16.94;42.38
47082;BME280;33066;49.296;14.470;2022-10-24T00:49:56;97019.95;;;17.20;42.40
47082;BME280;33066;49.296;14.470;2022-10-24T00:52:21;97023.23;;;17.22;42.35
47082;BME280;33066;49.296;14.470;2022-10-24T00:54:45;97024.28;;;17.21;42.41
47082;BME280;33066;49.296;14.470;2022-10-24T00:57:14;97026.12;;;17.21;42.41
47082;BME280;33066;49.296;14.470;2022-10-24T00:59:35;97031.97;;;17.19;42.40
47082;BME280;33066;49.296;14.470;2022-10-24T01:02:00;97047.07;;;17.19;42.50
47082;BME280;33066;49.296;14.470;2022-10-24T01:04:25;97030.29;;;16.92;42.55
47082;BME280;33066;49.296;14.470;2022-10-24T01:07:02;97045.12;;;17.30;42.72
47082;BME280;33066;49.296;14.470;2022-10-24T01:09:26;97039.88;;;16.99;42.90
47082;BME280;33066;49.296;14.470;2022-10-24T01:11:51;97039.23;;;17.34;42.71
47082;BME280;33066;49.296;14.470;2022-10-24T01:14:12;97036.54;;;17.15;42.58
47082;BME280;33066;49.296;14.470;2022-10-24T01:16:37;97033.89;;;17.15;42.60
47082;BME280;33066;49.296;14.470;2022-10-24T01:19:05;97028.28;;;17.15;42.72
47082;BME280;33066;49.296;14.470;2022-10-24T01:21:28;97025.22;;;17.17;42.77
47082;BME280;33066;49.296;14.470;2022-10-24T01:23:57;97027.58;;;17.17;42.83
47082;BME280;33066;49.296;14.470;2022-10-24T01:26:31;97025.66;;;17.40;42.88
47082;BME280;33066;49.296;14.470;2022-10-24T01:28:45;97024.42;;;17.16;42.85
47082;BME280;33066;49.296;14.470;2022-10-24T01:31:08;97032.17;;;17.35;42.84
47082;BME280;33066;49.296;14.470;2022-10-24T01:33:34;97031.49;;;17.12;42.79
47082;BME280;33066;49.296;14.470;2022-10-24T01:36:00;97032.33;;;17.14;42.80
47082;BME280;33066;49.296;14.470;2022-10-24T01:38:27;97030.08;;;16.88;42.79
47082;BME280;33066;49.296;14.470;2022-10-24T01:40:52;97023.97;;;17.04;42.82
47082;BME280;33066;49.296;14.470;2022-10-24T01:43:16;97017.51;;;17.09;42.80
47082;BME280;33066;49.296;14.470;2022-10-24T01:45:42;97027.04;;;17.09;42.83
47082;BME280;33066;49.296;14.470;2022-10-24T01:48:08;97034.94;;;17.07;42.93
47082;BME280;33066;49.296;14.470;2022-10-24T01:50:31;97033.06;;;17.09;42.87
47082;BME280;33066;49.296;14.470;2022-10-24T01:52:56;97039.28;;;17.13;42.79
47082;BME280;33066;49.296;14.470;2022-10-24T01:55:22;97034.09;;;17.10;42.74
47082;BME280;33066;49.296;14.470;2022-10-24T01:57:47;97034.09;;;17.38;42.79
47082;BME280;33066;49.296;14.470;2022-10-24T02:00:17;97032.40;;;17.13;42.73
47082;BME280;33066;49.296;14.470;2022-10-24T02:02:41;97026.74;;;17.05;42.80
47082;BME280;33066;49.296;14.470;2022-10-24T02:05:08;97019.85;;;17.30;42.92
47082;BME280;33066;49.296;14.470;2022-10-24T02:07:30;97011.22;;;17.31;42.99
47082;BME280;33066;49.296;14.470;2022-10-24T02:09:58;97002.03;;;17.04;42.96
47082;BME280;33066;49.296;14.470;2022-10-24T02:12:22;97014.05;;;17.16;43.13
47082;BME280;33066;49.296;14.470;2022-10-24T02:14:49;97021.04;;;17.05;43.22
47082;BME280;33066;49.296;14.470;2022-10-24T02:17:11;97033.70;;;16.67;43.39
47082;BME280;33066;49.296;14.470;2022-10-24T02:19:36;97020.89;;;16.81;43.59
47082;BME280;33066;49.296;14.470;2022-10-24T02:22:05;97022.53;;;16.45;43.78
47082;BME280;33066;49.296;14.470;2022-10-24T02:24:31;97019.59;;;16.76;43.77
47082;BME280;33066;49.296;14.470;2022-10-24T02:26:56;97018.38;;;16.88;43.87
47082;BME280;33066;49.296;14.470;2022-10-24T02:29:24;97009.73;;;16.65;43.89
47082;BME280;33066;49.296;14.470;2022-10-24T02:31:49;97012.20;;;16.95;43.84
47082;BME280;33066;49.296;14.470;2022-10-24T02:34:12;97016.79;;;16.95;43.87
47082;BME280;33066;49.296;14.470;2022-10-24T02:36:36;97017.15;;;16.79;43.74
47082;BME280;33066;49.296;14.470;2022-10-24T02:39:01;97003.76;;;16.78;43.84
47082;BME280;33066;49.296;14.470;2022-10-24T02:41:29;96994.16;;;16.85;43.81
47082;BME280;33066;49.296;14.470;2022-10-24T02:43:52;97001.94;;;16.86;43.81
47082;BME280;33066;49.296;14.470;2022-10-24T02:46:17;97012.20;;;17.11;43.84
47082;BME280;33066;49.296;14.470;2022-10-24T02:48:46;97021.77;;;17.11;43.89
47082;BME280;33066;49.296;14.470;2022-10-24T02:51:08;97027.27;;;16.85;43.88
47082;BME280;33066;49.296;14.470;2022-10-24T02:53:34;97043.40;;;16.52;44.06
47082;BME280;33066;49.296;14.470;2022-10-24T02:55:58;97055.32;;;16.79;44.07
47082;BME280;33066;49.296;14.470;2022-10-24T02:58:24;97050.94;;;17.08;44.20
47082;BME280;33066;49.296;14.470;2022-10-24T03:00:50;97053.34;;;17.10;44.21
47082;BME280;33066;49.296;14.470;2022-10-24T03:03:15;97051.92;;;16.87;44.23
47082;BME280;33066;49.296;14.470;2022-10-24T03:05:41;97050.37;;;16.92;44.30
47082;BME280;33066;49.296;14.470;2022-10-24T03:08:06;97048.17;;;16.74;44.34
47082;BME280;33066;49.296;14.470;2022-10-24T03:13:00;97065.94;;;17.07;43.86
47082;BME280;33066;49.296;14.470;2022-10-24T03:15:25;97055.95;;;17.03;44.09
47082;BME280;33066;49.296;14.470;2022-10-24T03:17:50;97046.96;;;16.93;44.13
47082;BME280;33066;49.296;14.470;2022-10-24T03:20:16;97037.19;;;16.83;44.30
47082;BME280;33066;49.296;14.470;2022-10-24T03:22:41;97038.91;;;16.70;44.38
47082;BME280;33066;49.296;14.470;2022-10-24T03:25:07;97029.10;;;16.64;44.54
47082;BME280;33066;49.296;14.470;2022-10-24T03:27:32;97020.07;;;17.09;44.72
47082;BME280;33066;49.296;14.470;2022-10-24T03:29:57;97026.82;;;16.97;44.90
47082;BME280;33066;49.296;14.470;2022-10-24T03:32:23;97018.46;;;16.72;45.06
47082;BME280;33066;49.296;14.470;2022-10-24T03:34:49;96991.28;;;16.83;45.06
47082;BME280;33066;49.296;14.470;2022-10-24T03:37:14;96968.13;;;16.66;44.99
47082;BME280;33066;49.296;14.470;2022-10-24T03:39:40;96964.29;;;16.87;44.98
47082;BME280;33066;49.296;14.470;2022-10-24T03:42:05;96965.67;;;16.89;44.98
47082;BME280;33066;49.296;14.470;2022-10-24T03:44:31;96968.55;;;16.90;45.20
47082;BME280;33066;49.296;14.470;2022-10-24T03:46:56;96953.64;;;16.95;45.32
47082;BME280;33066;49.296;14.470;2022-10-24T03:49:22;96951.20;;;16.77;45.35
47082;BME280;33066;49.296;14.470;2022-10-24T03:51:47;96948.01;;;16.82;45.28
47082;BME280;33066;49.296;14.470;2022-10-24T03:54:12;96957.83;;;17.15;45.28
47082;BME280;33066;49.296;14.470;2022-10-24T03:56:37;96981.53;;;16.89;45.26
47082;BME280;33066;49.296;14.470;2022-10-24T03:59:03;96992.90;;;16.92;45.29
47082;BME280;33066;49.296;14.470;2022-10-24T04:01:28;96991.22;;;16.97;45.36
47082;BME280;33066;49.296;14.470;2022-10-24T04:03:54;96997.06;;;16.92;45.44
47082;BME280;33066;49.296;14.470;2022-10-24T04:06:19;96995.05;;;17.00;45.33
47082;BME280;33066;49.296;14.470;2022-10-24T04:08:44;96986.11;;;17.05;45.33
47082;BME280;33066;49.296;14.470;2022-10-24T04:11:10;96987.07;;;17.04;45.72
47082;BME280;33066;49.296;14.470;2022-10-24T04:13:36;96979.29;;;16.93;45.86
47082;BME280;33066;49.296;14.470;2022-10-24T04:16:01;96993.70;;;16.96;45.77
47082;BME280;33066;49.296;14.470;2022-10-24T04:18:26;97004.34;;;17.04;45.90
47082;BME280;33066;49.296;14.470;2022-10-24T04:20:52;97007.48;;;17.04;46.30
47082;BME280;33066;49.296;14.470;2022-10-24T04:23:17;97001.11;;;16.98;46.26
47082;BME280;33066;49.296;14.470;2022-10-24T04:25:42;96989.71;;;17.03;46.04
47082;BME280;33066;49.296;14.470;2022-10-24T04:28:08;96993.99;;;17.10;45.91
47082;BME280;33066;49.296;14.470;2022-10-24T04:30:33;96989.62;;;17.15;45.54
47082;BME280;33066;49.296;14.470;2022-10-24T04:32:58;96984.02;;;17.20;45.45
47082;BME280;33066;49.296;14.470;2022-10-24T04:35:24;96989.30;;;17.19;45.54
47082;BME280;33066;49.296;14.470;2022-10-24T04:37:49;96987.30;;;16.96;45.41
47082;BME280;33066;49.296;14.470;2022-10-24T04:40:14;96982.21;;;17.23;45.39
47082;BME280;33066;49.296;14.470;2022-10-24T04:42:40;96976.04;;;17.19;45.33
47082;BME280;33066;49.296;14.470;2022-10-24T04:45:06;96977.81;;;17.17;45.30
47082;BME280;33066;49.296;14.470;2022-10-24T04:47:30;96983.05;;;17.16;45.32
47082;BME280;33066;49.296;14.470;2022-10-24T04:49:56;96981.36;;;17.17;45.46
47082;BME280;33066;49.296;14.470;2022-10-24T04:52:22;96985.67;;;17.18;45.62
47082;BME280;33066;49.296;14.470;2022-10-24T04:54:47;96984.12;;;17.11;45.75
47082;BME280;33066;49.296;14.470;2022-10-24T04:57:12;96982.74;;;17.22;45.99
47082;BME280;33066;49.296;14.470;2022-10-24T04:59:38;96980.15;;;16.85;45.86
47082;BME280;33066;49.296;14.470;2022-10-24T05:02:03;96977.39;;;16.86;46.41
47082;BME280;33066;49.296;14.470;2022-10-24T05:04:29;96984.16;;;16.81;46.03
47082;BME280;33066;49.296;14.470;2022-10-24T05:06:54;96992.17;;;17.03;45.82
47082;BME280;33066;49.296;14.470;2022-10-24T05:09:19;96995.14;;;16.91;45.93
47082;BME280;33066;49.296;14.470;2022-10-24T05:11:44;96996.57;;;16.67;45.72
47082;BME280;33066;49.296;14.470;2022-10-24T05:14:10;96990.30;;;16.73;45.65
47082;BME280;33066;49.296;14.470;2022-10-24T05:16:35;96992.47;;;16.82;45.54
47082;BME280;33066;49.296;14.470;2022-10-24T05:19:01;96989.13;;;16.83;45.51
47082;BME280;33066;49.296;14.470;2022-10-24T05:21:27;96985.05;;;17.09;45.49
47082;BME280;33066;49.296;14.470;2022-10-24T05:23:53;96986.03;;;16.85;45.41
47082;BME280;33066;49.296;14.470;2022-10-24T05:26:18;96979.23;;;17.11;45.40
47082;BME280;33066;49.296;14.470;2022-10-24T05:28:43;96975.56;;;16.91;45.36
47082;BME280;33066;49.296;14.470;2022-10-24T05:31:08;96971.61;;;16.86;45.44
47082;BME280;33066;49.296;14.470;2022-10-24T05:33:34;96969.08;;;16.86;45.49
47082;BME280;33066;49.296;14.470;2022-10-24T05:36:00;96966.78;;;16.88;45.44
47082;BME280;33066;49.296;14.470;2022-10-24T05:38:25;96960.42;;;17.23;45.01
47082;BME280;33066;49.296;14.470;2022-10-24T05:40:52;96946.33;;;17.23;44.90
47082;BME280;33066;49.296;14.470;2022-10-24T05:43:18;96933.34;;;17.12;45.17
47082;BME280;33066;49.296;14.470;2022-10-24T05:45:43;96926.84;;;17.06;45.12
47082;BME280;33066;49.296;14.470;2022-10-24T05:48:09;96928.34;;;16.99;45.19
47082;BME280;33066;49.296;14.470;2022-10-24T05:50:34;96930.30;;;16.93;45.26
47082;BME280;33066;49.296;14.470;2022-10-24T05:52:59;96938.95;;;16.94;45.20
47082;BME280;33066;49.296;14.470;2022-10-24T05:55:24;96943.41;;;16.91;45.25
47082;BME280;33066;49.296;14.470;2022-10-24T05:57:50;96943.46;;;16.61;45.42
47082;BME280;33066;49.296;14.470;2022-10-24T06:00:16;96947.12;;;16.86;45.42
47082;BME280;33066;49.296;14.470;2022-10-24T06:02:41;96946.46;;;16.87;45.35
47082;BME280;33066;49.296;14.470;2022-10-24T06:05:08;96941.29;;;16.85;45.34
47082;BME280;33066;49.296;14.470;2022-10-24T06:07:32;96938.48;;;17.12;45.31
47082;BME280;33066;49.296;14.470;2022-10-24T06:09:57;96942.74;;;16.90;45.25
47082;BME280;33066;49.296;14.470;2022-10-24T06:12:23;96944.17;;;17.12;45.26
47082;BME280;33066;49.296;14.470;2022-10-24T06:14:48;96948.93;;;16.88;45.37
47082;BME280;33066;49.296;14.470;2022-10-24T06:17:13;96956.06;;;17.12;45.37
47082;BME280;33066;49.296;14.470;2022-10-24T06:19:39;96956.23;;;16.96;45.28
47082;BME280;33066;49.296;14.470;2022-10-24T06:22:06;96954.56;;;17.00;45.24
47082;BME280;33066;49.296;14.470;2022-10-24T06:24:30;96950.01;;;17.43;45.31
47082;BME280;33066;49.296;14.470;2022-10-24T06:26:55;96952.78;;;16.86;45.44
47082;BME280;33066;49.296;14.470;2022-10-24T06:29:20;96956.50;;;17.21;45.57
47082;BME280;33066;49.296;14.470;2022-10-24T06:31:46;96963.38;;;16.74;45.63
47082;BME280;33066;49.296;14.470;2022-10-24T06:34:11;96961.22;;;16.84;45.56
47082;BME280;33066;49.296;14.470;2022-10-24T06:36:37;96964.12;;;16.90;45.64
47082;BME280;33066;49.296;14.470;2022-10-24T06:39:03;96966.37;;;17.23;45.57
47082;BME280;33066;49.296;14.470;2022-10-24T06:41:28;96969.50;;;17.11;45.47
47082;BME280;33066;49.296;14.470;2022-10-24T06:43:54;96976.53;;;17.13;45.40
47082;BME280;33066;49.296;14.470;2022-10-24T06:46:19;96981.42;;;17.21;45.34
47082;BME280;33066;49.296;14.470;2022-10-24T06:48:45;96985.11;;;17.30;45.25
47082;BME280;33066;49.296;14.470;2022-10-24T06:51:14;96980.16;;;17.38;45.17
47082;BME280;33066;49.296;14.470;2022-10-24T06:53:36;96977.58;;;17.43;45.16
47082;BME280;33066;49.296;14.470;2022-10-24T06:56:02;96978.02;;;17.20;45.30
47082;BME280;33066;49.296;14.470;2022-10-24T06:58:30;96980.18;;;17.01;45.34
47082;BME280;33066;49.296;14.470;2022-10-24T07:00:52;96978.35;;;17.31;45.29
47082;BME280;33066;49.296;14.470;2022-10-24T07:03:17;96980.56;;;17.42;45.16
47082;BME280;33066;49.296;14.470;2022-10-24T07:05:43;96982.82;;;17.75;45.11
47082;BME280;33066;49.296;14.470;2022-10-24T07:08:08;96980.61;;;17.82;45.04
47082;BME280;33066;49.296;14.470;2022-10-24T07:10:34;96982.98;;;17.59;45.15
47082;BME280;33066;49.296;14.470;2022-10-24T07:13:00;96983.70;;;17.57;45.38
47082;BME280;33066;49.296;14.470;2022-10-24T07:15:25;96989.50;;;17.37;45.22
47082;BME280;33066;49.296;14.470;2022-10-24T07:17:50;96998.56;;;17.60;45.31
47082;BME280;33066;49.296;14.470;2022-10-24T07:20:16;96997.10;;;17.59;45.35
47082;BME280;33066;49.296;14.470;2022-10-24T07:22:42;96987.09;;;17.62;45.38
47082;BME280;33066;49.296;14.470;2022-10-24T07:25:08;96981.23;;;17.40;45.47
47082;BME280;33066;49.296;14.470;2022-10-24T07:27:33;96978.33;;;17.68;45.46
47082;BME280;33066;49.296;14.470;2022-10-24T07:29:59;96976.14;;;17.66;45.52
47082;BME280;33066;49.296;14.470;2022-10-24T07:32:24;96971.34;;;17.97;45.54
47082;BME280;33066;49.296;14.470;2022-10-24T07:34:50;96972.72;;;17.79;45.52
47082;BME280;33066;49.296;14.470;2022-10-24T07:37:16;96976.19;;;18.13;45.50
47082;BME280;33066;49.296;14.470;2022-10-24T07:39:40;96976.63;;;17.68;45.58
47082;BME280;33066;49.296;14.470;2022-10-24T07:42:06;96977.71;;;17.64;45.64
47082;BME280;33066;49.296;14.470;2022-10-24T07:44:31;96978.19;;;17.62;45.67
47082;BME280;33066;49.296;14.470;2022-10-24T07:46:57;96977.11;;;17.65;45.60
47082;BME280;33066;49.296;14.470;2022-10-24T07:49:22;96978.40;;;17.70;45.56
47082;BME280;33066;49.296;14.470;2022-10-24T07:51:47;96980.37;;;17.75;45.58
47082;BME280;33066;49.296;14.470;2022-10-24T07:54:13;96978.89;;;18.01;45.61
47082;BME280;33066;49.296;14.470;2022-10-24T07:56:39;96979.76;;;17.82;45.61
47082;BME280;33066;49.296;14.470;2022-10-24T07:59:04;96981.80;;;17.83;45.62
47082;BME280;33066;49.296;14.470;2022-10-24T08:01:30;96982.84;;;17.83;45.76
47082;BME280;33066;49.296;14.470;2022-10-24T08:03:55;96981.49;;;18.32;45.73
47082;BME280;33066;49.296;14.470;2022-10-24T08:06:22;96979.68;;;17.85;45.69
47082;BME280;33066;49.296;14.470;2022-10-24T08:08:46;96979.44;;;17.87;45.78
47082;BME280;33066;49.296;14.470;2022-10-24T08:11:16;96977.57;;;17.88;45.88
47082;BME280;33066;49.296;14.470;2022-10-24T08:13:37;96979.38;;;18.14;45.96
47082;BME280;33066;49.296;14.470;2022-10-24T08:16:04;96978.39;;;17.93;45.99
47082;BME280;33066;49.296;14.470;2022-10-24T08:18:27;96972.14;;;17.98;46.00
47082;BME280;33066;49.296;14.470;2022-10-24T08:20:57;96964.14;;;17.97;46.15
47082;BME280;33066;49.296;14.470;2022-10-24T08:23:18;96960.92;;;17.99;46.33
47082;BME280;33066;49.296;14.470;2022-10-24T08:25:43;96952.24;;;17.98;46.58
47082;BME280;33066;49.296;14.470;2022-10-24T08:28:09;96952.56;;;18.00;46.58
47082;BME280;33066;49.296;14.470;2022-10-24T08:30:34;96948.68;;;18.01;46.56
47082;BME280;33066;49.296;14.470;2022-10-24T08:33:00;96950.27;;;18.00;46.62
47082;BME280;33066;49.296;14.470;2022-10-24T08:35:26;96948.17;;;18.00;46.59
47082;BME280;33066;49.296;14.470;2022-10-24T08:37:51;96945.40;;;18.00;46.52
47082;BME280;33066;49.296;14.470;2022-10-24T08:40:18;96950.63;;;17.98;46.61
47082;BME280;33066;49.296;14.470;2022-10-24T08:42:42;96948.08;;;18.43;46.83
47082;BME280;33066;49.296;14.470;2022-10-24T08:45:12;96942.77;;;17.95;47.01
47082;BME280;33066;49.296;14.470;2022-10-24T08:47:37;96942.59;;;17.95;47.19
47082;BME280;33066;49.296;14.470;2022-10-24T08:50:03;96944.06;;;17.90;47.49
47082;BME280;33066;49.296;14.470;2022-10-24T08:52:29;96940.17;;;17.84;47.69
47082;BME280;33066;49.296;14.470;2022-10-24T08:54:51;96938.92;;;18.03;47.85
47082;BME280;33066;49.296;14.470;2022-10-24T08:57:20;96936.65;;;17.84;47.83
47082;BME280;33066;49.296;14.470;2022-10-24T08:59:40;96934.85;;;17.90;47.85
47082;BME280;33066;49.296;14.470;2022-10-24T09:02:14;96934.18;;;17.98;47.82
47082;BME280;33066;49.296;14.470;2022-10-24T09:04:35;96934.69;;;18.05;47.81
47082;BME280;33066;49.296;14.470;2022-10-24T09:06:58;96934.80;;;18.14;47.82
47082;BME280;33066;49.296;14.470;2022-10-24T09:09:27;96936.66;;;18.18;47.90
47082;BME280;33066;49.296;14.470;2022-10-24T09:11:51;96937.62;;;18.27;48.10
47082;BME280;33066;49.296;14.470;2022-10-24T09:14:15;96943.89;;;18.39;48.17
47082;BME280;33066;49.296;14.470;2022-10-24T09:16:40;96952.50;;;18.48;48.16
47082;BME280;33066;49.296;14.470;2022-10-24T09:19:05;96957.70;;;18.55;48.25
47082;BME280;33066;49.296;14.470;2022-10-24T09:21:30;96962.71;;;18.59;48.15
47082;BME280;33066;49.296;14.470;2022-10-24T09:23:55;96964.71;;;18.60;48.05
47082;BME280;33066;49.296;14.470;2022-10-24T09:26:26;96970.65;;;18.62;47.96
47082;BME280;33066;49.296;14.470;2022-10-24T09:28:46;96978.70;;;18.33;48.03
47082;BME280;33066;49.296;14.470;2022-10-24T09:31:16;96977.28;;;18.15;48.42
47082;BME280;33066;49.296;14.470;2022-10-24T09:33:38;96972.17;;;18.08;48.42
47082;BME280;33066;49.296;14.470;2022-10-24T09:36:04;96971.15;;;18.06;48.80
47082;BME280;33066;49.296;14.470;2022-10-24T09:38:30;96967.15;;;18.32;49.19
47082;BME280;33066;49.296;14.470;2022-10-24T09:40:55;96967.01;;;18.43;48.70
47082;BME280;33066;49.296;14.470;2022-10-24T09:43:21;96972.29;;;18.49;48.53
47082;BME280;33066;49.296;14.470;2022-10-24T09:45:45;96979.39;;;18.56;48.35
47082;BME280;33066;49.296;14.470;2022-10-24T09:48:19;96980.47;;;18.55;48.34
47082;BME280;33066;49.296;14.470;2022-10-24T09:50:35;96982.48;;;18.34;48.23
47082;BME280;33066;49.296;14.470;2022-10-24T09:53:01;96986.00;;;18.35;48.33
47082;BME280;33066;49.296;14.470;2022-10-24T09:55:26;96991.16;;;18.61;48.86
47082;BME280;33066;49.296;14.470;2022-10-24T09:57:53;96993.36;;;18.43;48.87
47082;BME280;33066;49.296;14.470;2022-10-24T10:00:24;96993.22;;;18.75;48.54
47082;BME280;33066;49.296;14.470;2022-10-24T10:02:56;96992.10;;;18.57;48.35
47082;BME280;33066;49.296;14.470;2022-10-24T10:05:17;96988.60;;;18.59;48.16
47082;BME280;33066;49.296;14.470;2022-10-24T10:07:36;96991.91;;;18.66;48.11
47082;BME280;33066;49.296;14.470;2022-10-24T10:10:04;96997.26;;;18.91;48.26
47082;BME280;33066;49.296;14.470;2022-10-24T10:12:30;96998.43;;;18.95;48.25
47082;BME280;33066;49.296;14.470;2022-10-24T10:14:52;96994.23;;;18.76;48.14
47082;BME280;33066;49.296;14.470;2022-10-24T10:17:21;96989.35;;;18.78;48.07
47082;BME280;33066;49.296;14.470;2022-10-24T10:19:45;96986.93;;;18.81;48.03
47082;BME280;33066;49.296;14.470;2022-10-24T10:24:39;96969.76;;;18.84;48.09
47082;BME280;33066;49.296;14.470;2022-10-24T10:26:58;96965.94;;;18.87;48.11
47082;BME280;33066;49.296;14.470;2022-10-24T10:29:24;96965.37;;;19.16;48.09
47082;BME280;33066;49.296;14.470;2022-10-24T10:31:56;96964.87;;;19.16;48.14
47082;BME280;33066;49.296;14.470;2022-10-24T10:34:21;96962.71;;;18.68;48.12
47082;BME280;33066;49.296;14.470;2022-10-24T10:36:49;96957.68;;;18.72;48.15
47082;BME280;33066;49.296;14.470;2022-10-24T10:39:17;96956.21;;;18.99;48.16
47082;BME280;33066;49.296;14.470;2022-10-24T10:41:39;96955.71;;;18.95;48.28
47082;BME280;33066;49.296;14.470;2022-10-24T10:44:07;96953.71;;;18.90;48.45
47082;BME280;33066;49.296;14.470;2022-10-24T10:46:29;96950.75;;;18.92;48.56
47082;BME280;33066;49.296;14.470;2022-10-24T10:48:57;96949.12;;;19.04;48.54
47082;BME280;33066;49.296;14.470;2022-10-24T10:51:21;96946.96;;;18.92;48.73
47082;BME280;33066;49.296;14.470;2022-10-24T10:53:43;96950.05;;;18.99;48.77
47082;BME280;33066;49.296;14.470;2022-10-24T10:56:15;96958.48;;;19.32;48.75
47082;BME280;33066;49.296;14.470;2022-10-24T10:58:38;96962.60;;;19.43;48.97
47082;BME280;33066;49.296;14.470;2022-10-24T11:01:03;96961.18;;;19.17;49.05
47082;BME280;33066;49.296;14.470;2022-10-24T11:03:32;96955.06;;;19.46;48.97
47082;BME280;33066;49.296;14.470;2022-10-24T11:05:52;96957.35;;;19.28;48.88
47082;BME280;33066;49.296;14.470;2022-10-24T11:08:22;96958.90;;;19.43;48.83
47082;BME280;33066;49.296;14.470;2022-10-24T11:10:39;96957.54;;;19.33;48.70
47082;BME280;33066;49.296;14.470;2022-10-24T11:13:05;96949.99;;;19.41;48.58
47082;BME280;33066;49.296;14.470;2022-10-24T11:15:30;96947.91;;;19.49;48.51
47082;BME280;33066;49.296;14.470;2022-10-24T11:17:55;96948.51;;;19.52;48.48
47082;BME280;33066;49.296;14.470;2022-10-24T11:20:23;96941.02;;;19.53;48.59
47082;BME280;33066;49.296;14.470;2022-10-24T11:22:46;96941.70;;;19.61;48.58
47082;BME280;33066;49.296;14.470;2022-10-24T11:25:19;96945.14;;;19.66;48.68
47082;BME280;33066;49.296;14.470;2022-10-24T11:27:39;96947.44;;;19.67;48.65
47082;BME280;33066;49.296;14.470;2022-10-24T11:30:05;96950.18;;;19.67;48.71
47082;BME280;33066;49.296;14.470;2022-10-24T11:32:33;96953.25;;;19.74;48.72
47082;BME280;33066;49.296;14.470;2022-10-24T11:34:57;96952.22;;;19.84;48.57
47082;BME280;33066;49.296;14.470;2022-10-24T11:37:20;96951.09;;;19.95;48.70
47082;BME280;33066;49.296;14.470;2022-10-24T11:39:47;96953.14;;;19.94;48.44
47082;BME280;33066;49.296;14.470;2022-10-24T11:42:13;96955.98;;;19.61;48.50
47082;BME280;33066;49.296;14.470;2022-10-24T11:44:42;96947.85;;;19.81;48.67
47082;BME280;33066;49.296;14.470;2022-10-24T11:47:09;96934.17;;;19.64;48.72
47082;BME280;33066;49.296;14.470;2022-10-24T11:49:29;96923.96;;;19.74;48.75
47082;BME280;33066;49.296;14.470;2022-10-24T11:51:54;96928.11;;;19.80;48.99
47082;BME280;33066;49.296;14.470;2022-10-24T11:54:20;96929.46;;;20.08;48.91
47082;BME280;33066;49.296;14.470;2022-10-24T11:56:44;96929.82;;;20.13;49.01
47082;BME280;33066;49.296;14.470;2022-10-24T11:59:11;96934.18;;;20.13;49.16
47082;BME280;33066;49.296;14.470;2022-10-24T12:01:42;96934.82;;;20.11;49.19
47082;BME280;33066;49.296;14.470;2022-10-24T12:04:12;96937.06;;;20.11;49.12
47082;BME280;33066;49.296;14.470;2022-10-24T12:06:37;96936.13;;;19.62;49.10
47082;BME280;33066;49.296;14.470;2022-10-24T12:11:25;96934.89;;;19.83;49.22
47082;BME280;33066;49.296;14.470;2022-10-24T12:13:54;96942.23;;;20.06;49.33
47082;BME280;33066;49.296;14.470;2022-10-24T12:16:09;96946.09;;;19.81;49.40
47082;BME280;33066;49.296;14.470;2022-10-24T12:18:31;96952.24;;;19.99;49.41
47082;BME280;33066;49.296;14.470;2022-10-24T12:20:55;96955.81;;;19.92;49.50
47082;BME280;33066;49.296;14.470;2022-10-24T12:23:21;96957.82;;;19.86;49.53
47082;BME280;33066;49.296;14.470;2022-10-24T12:25:44;96957.43;;;19.53;49.75
47082;BME280;33066;49.296;14.470;2022-10-24T12:28:18;96957.05;;;19.70;49.76
47082;BME280;33066;49.296;14.470;2022-10-24T12:30:36;96949.87;;;19.39;49.98
47082;BME280;33066;49.296;14.470;2022-10-24T12:35:36;96944.61;;;19.63;50.19
47082;BME280;33066;49.296;14.470;2022-10-24T12:37:52;96946.58;;;19.40;50.26
47082;BME280;33066;49.296;14.470;2022-10-24T12:45:24;96959.69;;;19.35;50.49
47082;BME280;33066;49.296;14.470;2022-10-24T12:47:35;96962.79;;;19.33;50.50
47082;BME280;33066;49.296;14.470;2022-10-24T12:54:50;96961.51;;;19.46;50.82
47082;BME280;33066;49.296;14.470;2022-10-24T12:57:22;96954.87;;;19.24;50.66
47082;BME280;33066;49.296;14.470;2022-10-24T12:59:46;96955.61;;;19.44;50.20
47082;BME280;33066;49.296;14.470;2022-10-24T13:04:48;96949.91;;;19.33;49.61